Fair Lady — 9HA2051 — position and weather

sailwx.info

Track history (hours):
 
Tides and Currents Weather Stations Pressure Air Temp Water Temp Dewpoint Dewpoint Depression Visibility Wind Speed Wind Dir Waves Ship Positions

Fair Lady

Last reported at 2018-Feb-21 04:26 UTC. Time now 2018-Feb-21 05:46 UTC.
Position N 36°20' E 014°46'.

Length 225 m; draft 11.5 m.

Type: Cargo ship. MMSI: 249875000.

Date/timePositionNaut miles runAvg speedWind from/ knotsBaromVisibWave heightAir tempDewpointWater temp
2018-Feb-21 04:26N 36°20' E 014°46'613.6
2018-Feb-21 04:00N 36°21' E 014°39'713.4
2018-Feb-21 03:30N 36°23' E 014°31'713.4
2018-Feb-21 03:00N 36°26' E 014°23'713.4
2018-Feb-21 02:30N 36°28' E 014°16'713.4
2018-Feb-21 02:00N 36°30' E 014°08'  
2018-Feb-16 12:55N 31°15' W 014°46'613.8
2018-Feb-16 12:31N 31°12' W 014°51'713.6
2018-Feb-16 12:01N 31°08' W 014°58'713.8
2018-Feb-16 11:30N 31°04' W 015°05'714.3
2018-Feb-16 10:59N 30°60' W 015°12'714.1
2018-Feb-16 10:28N 30°56' W 015°18'714.1
2018-Feb-16 10:00N 30°52' W 015°25'714.3
2018-Feb-16 09:31N 30°47' W 015°31'914.3
2018-Feb-16 08:53N 30°42' W 015°39'  
Track history (hours):
 
Tides and Currents Weather Stations Pressure Air Temp Water Temp Dewpoint Dewpoint Depression Visibility Wind Speed Wind Dir Waves Ship Positions

Fair Lady

Last reported at 2018-Feb-21 04:26 UTC. Time now 2018-Feb-21 05:46 UTC.
Position N 36°20' E 014°46'.

Length 225 m; draft 11.5 m.

Type: Cargo ship. MMSI: 249875000.

Date/timePositionNaut miles runAvg speedWind from/ knotsBaromVisibWave heightAir tempDewpointWater temp
2018-Feb-21 04:26N 36°20' E 014°46'613.6
2018-Feb-21 04:00N 36°21' E 014°39'713.4
2018-Feb-21 03:30N 36°23' E 014°31'713.4
2018-Feb-21 03:00N 36°26' E 014°23'713.4
2018-Feb-21 02:30N 36°28' E 014°16'713.4
2018-Feb-21 02:00N 36°30' E 014°08'  
2018-Feb-16 12:55N 31°15' W 014°46'613.8
2018-Feb-16 12:31N 31°12' W 014°51'713.6
2018-Feb-16 12:01N 31°08' W 014°58'713.8
2018-Feb-16 11:30N 31°04' W 015°05'714.3
2018-Feb-16 10:59N 30°60' W 015°12'714.1
2018-Feb-16 10:28N 30°56' W 015°18'714.1
2018-Feb-16 10:00N 30°52' W 015°25'714.3
2018-Feb-16 09:31N 30°47' W 015°31'914.3
2018-Feb-16 08:53N 30°42' W 015°39'  

Dump ship's entire track history